createdAt,value
2023-01-12T00:03:06.555Z,98926.33
2023-01-12T00:08:08.264Z,98925.86
2023-01-12T00:13:16.994Z,98929.32
2023-01-12T00:18:20.042Z,98934.48
2023-01-12T00:23:22.059Z,98941.34
2023-01-12T00:28:23.646Z,98945.25
2023-01-12T00:33:25.280Z,98939.48
2023-01-12T00:38:27.203Z,98939.67
2023-01-12T00:43:47.398Z,98945.48
2023-01-12T00:48:49.199Z,98948.95
2023-01-12T00:53:50.835Z,98958.50
2023-01-12T00:58:52.468Z,98961.41
2023-01-12T01:03:54.666Z,98963.14
2023-01-12T01:08:56.463Z,98965.05
2023-01-12T01:13:59.150Z,98976.13
2023-01-12T01:19:03.105Z,98977.04
2023-01-12T01:24:09.127Z,98975.92
2023-01-12T01:29:11.305Z,98973.27
2023-01-12T01:34:13.437Z,98976.37
2023-01-12T01:39:15.148Z,98980.22
2023-01-12T01:44:31.923Z,98975.69
2023-01-12T01:49:52.640Z,98973.42
2023-01-12T01:54:59.281Z,98978.13
2023-01-12T02:00:03.249Z,98982.34
2023-01-12T02:05:07.554Z,98986.95
2023-01-12T02:10:10.106Z,98986.38
2023-01-12T02:15:30.695Z,98996.23
2023-01-12T02:20:55.828Z,98997.52
2023-01-12T02:26:27.037Z,98996.52
2023-01-12T02:31:50.069Z,99003.04
2023-01-12T02:37:10.538Z,99000.84
2023-01-12T02:42:41.973Z,98997.73
2023-01-12T02:47:49.013Z,99008.08
2023-01-12T02:52:56.570Z,99000.22
2023-01-12T02:58:00.076Z,98995.31
2023-01-12T03:03:02.027Z,98998.17
2023-01-12T03:08:05.366Z,99002.66
2023-01-12T03:13:15.806Z,99006.77
2023-01-12T03:18:39.378Z,99010.95
2023-01-12T03:23:49.395Z,99009.60
2023-01-12T03:28:56.433Z,99008.96
2023-01-12T03:33:58.656Z,99003.16
2023-01-12T03:39:11.813Z,99006.99
2023-01-12T03:44:24.092Z,99007.18
2023-01-12T03:49:33.117Z,99005.60
2023-01-12T03:54:37.586Z,99004.02
2023-01-12T03:59:40.948Z,99005.71
2023-01-12T04:04:42.626Z,99006.08
2023-01-12T04:09:44.364Z,99006.22
2023-01-12T04:14:48.155Z,99007.20
2023-01-12T04:19:50.026Z,99010.42
2023-01-12T04:24:51.845Z,99020.52
2023-01-12T04:29:53.752Z,99028.26
2023-01-12T04:34:55.429Z,99025.07
2023-01-12T04:39:57.074Z,99024.06
2023-01-12T04:44:58.859Z,99029.59
2023-01-12T04:50:00.605Z,99029.27
2023-01-12T04:55:03.132Z,99028.98
2023-01-12T05:00:06.107Z,99035.05
2023-01-12T05:05:09.047Z,99043.70
2023-01-12T05:10:23.628Z,99037.67
2023-01-12T05:15:25.427Z,99031.64
2023-01-12T05:20:27.094Z,99037.40
2023-01-12T05:25:29.485Z,99035.90
2023-01-12T05:30:32.059Z,99040.52
2023-01-12T05:35:33.951Z,99047.38
2023-01-12T05:40:35.818Z,99043.95
2023-01-12T05:45:37.558Z,99040.62
2023-01-12T05:50:39.962Z,99046.60
2023-01-12T05:55:44.356Z,99056.71
2023-01-12T06:00:46.705Z,99056.26
2023-01-12T06:05:55.828Z,99060.26
2023-01-12T06:11:03.695Z,99057.20
2023-01-12T06:16:09.139Z,99049.76
2023-01-12T06:21:11.008Z,99056.27
2023-01-12T06:26:12.989Z,99054.68
2023-01-12T06:31:15.674Z,99055.34
2023-01-12T06:36:17.456Z,99066.19
2023-01-12T06:41:37.979Z,99067.88
2023-01-12T06:46:39.874Z,99067.20
2023-01-12T06:51:41.703Z,99071.84
2023-01-12T06:56:43.339Z,99076.02
2023-01-12T07:01:45.064Z,99068.79
2023-01-12T07:06:48.287Z,99059.37
2023-01-12T07:11:49.858Z,99065.27
2023-01-12T07:16:51.761Z,99073.80
2023-01-12T07:21:53.430Z,99078.02
2023-01-12T07:26:58.089Z,99069.62
2023-01-12T07:31:59.780Z,99073.14
2023-01-12T07:37:01.423Z,99058.73
2023-01-12T07:42:21.897Z,99076.75
2023-01-12T07:47:23.618Z,99068.29
2023-01-12T07:52:25.448Z,99074.15
2023-01-12T07:57:27.133Z,99075.61
2023-01-12T08:02:28.956Z,99081.63
2023-01-12T08:07:32.598Z,99073.65
2023-01-12T08:12:35.849Z,99076.70
2023-01-12T08:17:44.936Z,99070.58
2023-01-12T08:22:51.654Z,99067.53
2023-01-12T08:28:00.240Z,99062.98
2023-01-12T08:33:02.749Z,99063.70
2023-01-12T08:38:04.503Z,99064.42
2023-01-12T08:43:06.225Z,99065.06
2023-01-12T08:48:07.889Z,99074.25
2023-01-12T08:53:10.540Z,99075.75
2023-01-12T08:58:12.421Z,99082.45
2023-01-12T09:03:14.491Z,99084.79
2023-01-12T09:08:16.508Z,99089.33
2023-01-12T09:13:18.148Z,99083.74
2023-01-12T09:18:20.421Z,99073.34
2023-01-12T09:23:22.267Z,99077.23
2023-01-12T09:28:24.071Z,99055.61
2023-01-12T09:33:26.020Z,99054.54
2023-01-12T09:38:27.906Z,99058.75
2023-01-12T09:43:48.176Z,99051.55
2023-01-12T09:48:49.978Z,99055.91
2023-01-12T09:53:51.809Z,99056.79
2023-01-12T09:58:59.534Z,99055.68
2023-01-12T10:04:02.283Z,99041.44
2023-01-12T10:09:05.972Z,99046.80
2023-01-12T10:14:28.198Z,99048.19
2023-01-12T10:20:03.013Z,99037.48
2023-01-12T10:25:27.058Z,99030.79
2023-01-12T10:30:28.856Z,99026.58
2023-01-12T10:35:30.561Z,99027.66
2023-01-12T10:40:34.957Z,99020.37
2023-01-12T10:45:36.847Z,99024.48
2023-01-12T10:50:38.667Z,99019.88
2023-01-12T10:55:43.067Z,99013.44
2023-01-12T11:00:52.229Z,99011.70
2023-01-12T11:05:53.971Z,99001.77
2023-01-12T11:10:55.683Z,98983.52
2023-01-12T11:16:09.526Z,98978.39
2023-01-12T11:21:15.825Z,98970.43
2023-01-12T11:26:22.672Z,98953.87
2023-01-12T11:31:42.386Z,98945.08
2023-01-12T11:36:50.964Z,98946.75
2023-01-12T11:42:17.632Z,98937.77
2023-01-12T11:47:31.515Z,98930.80
2023-01-12T11:52:34.535Z,98936.55
2023-01-12T11:58:00.640Z,98929.05
2023-01-12T12:03:12.238Z,98915.79
2023-01-12T12:08:42.013Z,98908.52
2023-01-12T12:14:31.198Z,98907.27
2023-01-12T12:19:50.198Z,98908.07
2023-01-12T12:25:50.666Z,98902.84
2023-01-12T12:31:24.081Z,98914.16
2023-01-12T12:36:34.869Z,98907.85
2023-01-12T12:42:11.820Z,98907.90
2023-01-12T12:47:41.024Z,98899.21
2023-01-12T12:52:47.847Z,98893.80
2023-01-12T12:58:01.391Z,98893.20
2023-01-12T13:03:03.129Z,98893.36
2023-01-12T13:08:05.261Z,98888.46
2023-01-12T13:13:24.896Z,98885.54
2023-01-12T13:18:42.151Z,98883.01
2023-01-12T13:23:51.374Z,98885.97
2023-01-12T13:29:29.055Z,98878.16
2023-01-12T13:34:36.655Z,98862.91
2023-01-12T13:39:45.953Z,98855.59
2023-01-12T13:44:48.833Z,98860.18
2023-01-12T13:49:53.220Z,98855.48
2023-01-12T13:54:55.557Z,98858.11
2023-01-12T14:00:09.300Z,98859.65
2023-01-12T14:05:29.531Z,98861.95
2023-01-12T14:10:49.621Z,98862.70
2023-01-12T14:16:19.555Z,98863.94
2023-01-12T14:21:33.343Z,98855.05
2023-01-12T14:26:35.456Z,98852.55
2023-01-12T14:31:40.230Z,98856.20
2023-01-12T14:36:44.318Z,98858.60
2023-01-12T14:42:11.274Z,98854.69
2023-01-12T14:47:24.900Z,98855.86
2023-01-12T14:52:33.264Z,98860.05
2023-01-12T14:57:36.435Z,98853.69
2023-01-12T15:02:41.488Z,98842.08
2023-01-12T15:07:55.755Z,98841.06
2023-01-12T15:13:12.924Z,98836.33
2023-01-12T15:18:34.016Z,98837.55
2023-01-12T15:23:55.604Z,98837.11
2023-01-12T15:28:57.338Z,98837.46
2023-01-12T15:34:00.278Z,98836.95
2023-01-12T15:39:01.964Z,98834.55
2023-01-12T15:44:03.707Z,98831.23
2023-01-12T15:49:05.868Z,98840.21
2023-01-12T15:54:11.484Z,98828.75
2023-01-12T15:59:13.479Z,98826.19
2023-01-12T16:04:41.975Z,98823.15
2023-01-12T16:09:47.779Z,98821.77
2023-01-12T16:14:50.015Z,98817.74
2023-01-12T16:19:51.772Z,98813.42
2023-01-12T16:24:55.630Z,98814.92
2023-01-12T16:29:57.646Z,98817.74
2023-01-12T16:34:59.325Z,98818.58
2023-01-12T16:40:01.197Z,98818.27
2023-01-12T16:45:03.584Z,98800.02
2023-01-12T16:50:06.004Z,98791.59
2023-01-12T16:55:07.857Z,98789.77
2023-01-12T17:00:10.688Z,98786.48
2023-01-12T17:05:12.474Z,98780.56
2023-01-12T17:10:17.594Z,98776.40
2023-01-12T17:15:19.334Z,98772.58
2023-01-12T17:20:21.461Z,98771.70
2023-01-12T17:25:23.547Z,98765.02
2023-01-12T17:30:25.805Z,98760.24
2023-01-12T17:35:27.610Z,98750.34
2023-01-12T17:40:29.414Z,98760.14
2023-01-12T17:45:31.327Z,98769.61
2023-01-12T17:50:33.151Z,98769.64
2023-01-12T17:55:47.358Z,98769.83
2023-01-12T18:00:49.801Z,98774.79
2023-01-12T18:06:02.837Z,98771.70
2023-01-12T18:11:08.595Z,98765.08
2023-01-12T18:16:12.581Z,98760.66
2023-01-12T18:21:18.558Z,98755.39
2023-01-12T18:26:25.781Z,98748.45
2023-01-12T18:31:31.890Z,98748.27
2023-01-12T18:36:36.778Z,98745.30
2023-01-12T18:41:57.155Z,98738.02
2023-01-12T18:47:19.104Z,98735.82
2023-01-12T18:52:40.055Z,98730.79
2023-01-12T18:57:41.705Z,98732.48
2023-01-12T19:02:44.651Z,98729.70
2023-01-12T19:07:58.684Z,98731.40
2023-01-12T19:13:18.855Z,98736.54
2023-01-12T19:18:20.647Z,98735.14
2023-01-12T19:23:41.673Z,98731.62
2023-01-12T19:28:43.392Z,98727.70
2023-01-12T19:33:45.140Z,98729.01
2023-01-12T19:38:50.971Z,98727.05
2023-01-12T19:43:52.736Z,98723.29
2023-01-12T19:48:54.430Z,98723.91
2023-01-12T19:53:56.151Z,98720.96
2023-01-12T19:58:58.046Z,98720.32
2023-01-12T20:03:59.970Z,98724.59
2023-01-12T20:09:03.149Z,98722.73
2023-01-12T20:14:05.138Z,98726.77
2023-01-12T20:19:07.217Z,98727.50
2023-01-12T20:24:09.425Z,98725.69
2023-01-12T20:29:11.685Z,98723.29
2023-01-12T20:34:13.609Z,98719.09
2023-01-12T20:39:16.146Z,98720.17
2023-01-12T20:44:20.352Z,98720.98
2023-01-12T20:49:22.209Z,98716.08
2023-01-12T20:54:23.977Z,98718.94
2023-01-12T20:59:25.792Z,98721.08
2023-01-12T21:04:27.547Z,98710.30
2023-01-12T21:09:29.621Z,98710.17
2023-01-12T21:14:32.202Z,98709.72
2023-01-12T21:19:34.409Z,98707.95
2023-01-12T21:24:36.160Z,98712.79
2023-01-12T21:29:37.923Z,98716.05
2023-01-12T21:34:39.706Z,98705.89
2023-01-12T21:39:41.489Z,98706.05
2023-01-12T21:44:43.169Z,98706.69
2023-01-12T21:49:44.934Z,98706.92
2023-01-12T21:54:46.793Z,98698.29
2023-01-12T21:59:48.471Z,98692.34
2023-01-12T22:04:50.132Z,98687.20
2023-01-12T22:09:52.019Z,98696.88
2023-01-12T22:14:57.022Z,98693.88
2023-01-12T22:19:59.117Z,98689.57
2023-01-12T22:25:00.947Z,98686.33
2023-01-12T22:30:05.204Z,98687.23
2023-01-12T22:35:07.719Z,98687.39
2023-01-12T22:40:11.055Z,98683.26
2023-01-12T22:45:14.010Z,98681.34
2023-01-12T22:50:15.951Z,98678.99
2023-01-12T22:55:17.755Z,98678.92
2023-01-12T23:00:21.095Z,98670.94
2023-01-12T23:05:22.930Z,98664.27
2023-01-12T23:10:25.517Z,98665.71
2023-01-12T23:15:27.244Z,98657.84
2023-01-12T23:20:29.140Z,98657.81
2023-01-12T23:25:32.890Z,98656.17
2023-01-12T23:30:34.721Z,98654.91
2023-01-12T23:35:40.439Z,98655.10
2023-01-12T23:40:42.395Z,98652.77
2023-01-12T23:45:44.346Z,98654.83
2023-01-12T23:50:46.148Z,98650.85
2023-01-12T23:55:47.964Z,98650.07
